Time;durP1;ratioP1;P1;durP2;ratioP2;P2;SDS_P1;SDS_P2;PMS_P1;PMS_P2;Temp;Humidity;BMP_temperature;BMP_pressure;BME280_temperature;BME280_humidity;BME280_pressure;Samples;Min_cycle;Max_cycle;Signal;HPM_P1;HPM_P2
2023/09/03 00:02:21;;;;;;;14.02;10.77;;;18.80;99.90;;;;;;5068619;28;20437;-84
2023/09/03 00:04:47;;;;;;;16.60;11.20;;;18.80;99.90;;;;;;5069259;28;20024;-86
2023/09/03 00:07:15;;;;;;;15.88;12.68;;;18.70;99.90;;;;;;5068143;28;20162;-86
2023/09/03 00:09:41;;;;;;;17.70;11.10;;;18.70;99.90;;;;;;5067148;28;20032;-82
2023/09/03 00:12:07;;;;;;;13.65;10.27;;;18.70;99.90;;;;;;5087789;28;20117;-87
2023/09/03 00:14:32;;;;;;;17.23;11.63;;;18.70;99.90;;;;;;5085326;28;20126;-82
2023/09/03 00:16:58;;;;;;;17.00;10.85;;;18.60;99.90;;;;;;5088107;28;20110;-85
2023/09/03 00:19:24;;;;;;;20.15;12.45;;;18.50;99.90;;;;;;5068391;28;20968;-83
2023/09/03 00:21:49;;;;;;;16.77;11.13;;;18.50;99.90;;;;;;5069197;28;20036;-86
2023/09/03 00:24:17;;;;;;;15.77;12.02;;;18.50;99.90;;;;;;5067708;28;20028;-81
2023/09/03 00:26:43;;;;;;;19.27;12.43;;;18.40;99.90;;;;;;5088428;28;20039;-82
2023/09/03 00:29:08;;;;;;;15.05;11.48;;;18.30;99.90;;;;;;5072077;28;20024;-81
2023/09/03 00:31:34;;;;;;;16.35;11.93;;;18.30;99.90;;;;;;5090065;28;20487;-82
2023/09/03 00:34:00;;;;;;;18.40;13.98;;;18.20;99.90;;;;;;5069222;28;20039;-79
2023/09/03 00:36:25;;;;;;;19.15;12.27;;;18.20;99.90;;;;;;5072704;28;20104;-81
2023/09/03 00:38:53;;;;;;;15.93;12.05;;;18.20;99.90;;;;;;5072489;28;20020;-79
2023/09/03 00:41:19;;;;;;;17.80;12.05;;;18.10;99.90;;;;;;5098560;28;20043;-80
2023/09/03 00:43:44;;;;;;;20.02;13.25;;;18.10;99.90;;;;;;5087848;28;20055;-77
2023/09/03 00:46:12;;;;;;;17.52;12.05;;;18.00;99.90;;;;;;5088913;28;20044;-79
2023/09/03 00:48:40;;;;;;;16.33;11.90;;;18.00;99.90;;;;;;5111371;28;20667;-77
2023/09/03 00:51:08;;;;;;;21.45;13.80;;;18.00;99.90;;;;;;5088277;28;20101;-82
2023/09/03 00:53:38;;;;;;;20.60;14.05;;;18.00;99.90;;;;;;5091878;28;20024;-76
2023/09/03 00:56:07;;;;;;;19.05;14.13;;;17.90;99.90;;;;;;5078399;28;20025;-80
2023/09/03 00:58:34;;;;;;;17.13;12.93;;;17.90;99.90;;;;;;5087024;28;20024;-76
2023/09/03 01:01:00;;;;;;;22.15;14.93;;;17.90;99.90;;;;;;5102542;28;20024;-81
2023/09/03 01:03:26;;;;;;;23.02;15.48;;;17.80;99.90;;;;;;5083869;28;20138;-81
2023/09/03 01:05:52;;;;;;;24.65;15.65;;;17.80;99.90;;;;;;5106194;28;20035;-78
2023/09/03 01:08:18;;;;;;;31.20;17.65;;;17.80;99.90;;;;;;5106316;28;20024;-80
2023/09/03 01:11:06;;;;;;;22.80;15.20;;;17.80;99.90;;;;;;5088956;28;20042;-76
2023/09/03 01:14:01;;;;;;;24.08;15.40;;;17.70;99.90;;;;;;5110100;28;20036;-76
2023/09/03 01:16:40;;;;;;;24.80;15.15;;;17.70;99.90;;;;;;5114636;28;20036;-75
2023/09/03 01:19:28;;;;;;;21.58;15.88;;;17.70;99.90;;;;;;5097827;28;20028;-75
2023/09/03 01:21:57;;;;;;;21.27;15.50;;;17.60;99.90;;;;;;5094089;28;20050;-76
2023/09/03 01:24:35;;;;;;;27.38;16.02;;;17.60;99.90;;;;;;5114661;28;20031;-75
2023/09/03 01:27:36;;;;;;;24.65;14.05;;;17.60;99.90;;;;;;5114709;28;20214;-78
2023/09/03 01:30:03;;;;;;;24.52;16.25;;;17.50;99.90;;;;;;5097873;28;20129;-75
2023/09/03 01:32:29;;;;;;;26.95;18.08;;;17.50;99.90;;;;;;5096705;28;20028;-75
2023/09/03 01:34:58;;;;;;;28.00;18.02;;;17.50;99.90;;;;;;5097482;28;20035;-76
2023/09/03 01:37:29;;;;;;;31.17;17.55;;;17.40;99.90;;;;;;5096543;28;20039;-75
2023/09/03 01:39:57;;;;;;;23.08;15.60;;;17.40;99.90;;;;;;5115320;28;20036;-75
2023/09/03 01:42:23;;;;;;;26.25;16.33;;;17.40;99.90;;;;;;5095749;28;20012;-75
2023/09/03 01:44:52;;;;;;;23.50;16.70;;;17.50;99.90;;;;;;5094940;28;20046;-76
2023/09/03 01:47:42;;;;;;;24.58;16.58;;;17.40;99.90;;;;;;5095318;28;20049;-75
2023/09/03 01:50:22;;;;;;;29.45;17.10;;;17.40;99.90;;;;;;5111750;28;20024;-76
2023/09/03 01:53:04;;;;;;;27.27;15.48;;;17.40;99.90;;;;;;5096673;28;20024;-75
2023/09/03 01:55:35;;;;;;;30.95;17.95;;;17.40;99.90;;;;;;5114258;28;20047;-75
2023/09/03 01:58:07;;;;;;;26.77;16.10;;;17.40;99.90;;;;;;5096734;28;20036;-75
2023/09/03 02:00:36;;;;;;;25.05;16.60;;;17.40;99.90;;;;;;5096417;28;20024;-75
2023/09/03 02:03:04;;;;;;;23.30;16.60;;;17.40;99.90;;;;;;5114459;28;20021;-76
2023/09/03 02:05:30;;;;;;;25.45;18.00;;;17.30;99.90;;;;;;5094383;28;20008;-75
2023/09/03 02:07:56;;;;;;;26.02;16.05;;;17.30;99.90;;;;;;5096413;28;20016;-75
2023/09/03 02:10:21;;;;;;;30.33;16.38;;;17.20;99.90;;;;;;5112954;28;20016;-75
2023/09/03 02:12:47;;;;;;;28.30;18.67;;;17.20;99.90;;;;;;5114019;28;20028;-74
2023/09/03 02:15:13;;;;;;;29.30;18.90;;;17.10;99.90;;;;;;5093669;28;20012;-75
2023/09/03 02:17:38;;;;;;;35.05;20.58;;;17.10;99.90;;;;;;5096517;28;20040;-75
2023/09/03 02:20:04;;;;;;;34.40;20.30;;;17.10;99.90;;;;;;5095072;28;20012;-74
2023/09/03 02:22:30;;;;;;;33.65;18.73;;;17.10;99.90;;;;;;5096168;28;20039;-75
2023/09/03 02:24:56;;;;;;;32.70;21.23;;;17.10;99.90;;;;;;5095070;28;20043;-75
2023/09/03 02:27:21;;;;;;;31.73;19.60;;;17.10;99.90;;;;;;5114280;28;20031;-75
2023/09/03 02:29:47;;;;;;;30.88;20.58;;;17.10;99.90;;;;;;5113666;28;20020;-74
2023/09/03 02:32:13;;;;;;;32.17;19.50;;;17.10;99.90;;;;;;5094397;28;20044;-74
2023/09/03 02:34:40;;;;;;;33.65;19.48;;;17.10;99.90;;;;;;5094470;28;20020;-74
2023/09/03 02:37:06;;;;;;;28.05;18.92;;;17.00;99.90;;;;;;5091405;28;20450;-75
2023/09/03 02:39:34;;;;;;;32.05;20.23;;;17.10;99.90;;;;;;5096697;28;20004;-75
2023/09/03 02:42:01;;;;;;;33.03;20.83;;;17.00;99.90;;;;;;5093869;28;20016;-74
2023/09/03 02:44:32;;;;;;;33.25;22.23;;;17.00;99.90;;;;;;5095461;28;20039;-75
2023/09/03 02:46:57;;;;;;;30.92;21.40;;;17.00;99.90;;;;;;5095297;28;20035;-74
2023/09/03 02:49:23;;;;;;;31.55;20.52;;;17.00;99.90;;;;;;5096105;28;20016;-75
2023/09/03 02:51:49;;;;;;;29.88;20.00;;;17.00;99.90;;;;;;5094132;28;20032;-74
2023/09/03 02:54:14;;;;;;;29.35;19.98;;;17.00;99.90;;;;;;5093363;28;20008;-75
2023/09/03 02:56:42;;;;;;;28.10;18.90;;;16.90;99.90;;;;;;5094971;28;20063;-74
2023/09/03 02:59:07;;;;;;;31.02;19.58;;;17.00;99.90;;;;;;5093266;28;20012;-74
2023/09/03 03:01:33;;;;;;;26.88;18.55;;;16.90;99.90;;;;;;5094056;28;20099;-75
2023/09/03 03:03:59;;;;;;;28.58;18.73;;;16.90;99.90;;;;;;5112898;28;20031;-74
2023/09/03 03:06:25;;;;;;;32.50;20.98;;;16.90;99.90;;;;;;5095155;28;20048;-75
2023/09/03 03:08:50;;;;;;;28.52;18.98;;;16.90;99.90;;;;;;5113630;28;20038;-74
2023/09/03 03:11:17;;;;;;;29.17;19.95;;;16.90;99.90;;;;;;5112956;28;20032;-74
2023/09/03 03:13:50;;;;;;;34.85;23.08;;;16.90;99.90;;;;;;5094581;28;20008;-75
2023/09/03 03:16:16;;;;;;;39.40;23.75;;;16.90;99.90;;;;;;5095046;28;20036;-74
2023/09/03 03:18:44;;;;;;;34.50;22.02;;;16.90;99.90;;;;;;5091757;28;20091;-75
2023/09/03 03:21:22;;;;;;;37.50;22.77;;;16.80;99.90;;;;;;5113409;28;20044;-74
2023/09/03 03:23:52;;;;;;;35.17;21.52;;;16.90;99.90;;;;;;5112098;28;20032;-75
2023/09/03 03:26:18;;;;;;;29.20;20.48;;;16.90;99.90;;;;;;5089812;28;20393;-74
2023/09/03 03:28:47;;;;;;;31.63;19.92;;;16.80;99.90;;;;;;5093207;28;20023;-74
2023/09/03 03:31:14;;;;;;;28.38;19.25;;;16.80;99.90;;;;;;5092988;28;20017;-74
2023/09/03 03:33:43;;;;;;;33.95;21.38;;;16.80;99.90;;;;;;5094109;28;20047;-75
2023/09/03 03:36:16;;;;;;;31.13;21.13;;;16.70;99.90;;;;;;5092348;28;20020;-75
2023/09/03 03:38:42;;;;;;;34.03;22.17;;;16.60;99.90;;;;;;5111370;28;20035;-75
2023/09/03 03:41:11;;;;;;;35.95;22.80;;;16.60;99.90;;;;;;5111860;28;20083;-74
2023/09/03 03:43:39;;;;;;;37.78;26.35;;;16.50;99.90;;;;;;5093107;28;20259;-74
2023/09/03 03:46:06;;;;;;;37.45;22.15;;;16.50;99.90;;;;;;5089455;28;20020;-74
2023/09/03 03:48:32;;;;;;;32.30;21.35;;;16.60;99.90;;;;;;5092875;28;20047;-75
2023/09/03 03:50:58;;;;;;;34.20;23.00;;;16.60;99.90;;;;;;5094143;28;20028;-75
2023/09/03 03:53:23;;;;;;;33.60;22.88;;;16.50;99.90;;;;;;5112349;28;20268;-74
2023/09/03 03:56:02;;;;;;;36.92;22.63;;;16.60;99.90;;;;;;5094268;28;20032;-74
2023/09/03 03:58:31;;;;;;;30.33;20.52;;;16.60;99.90;;;;;;5112341;28;20032;-74
2023/09/03 04:00:59;;;;;;;37.15;20.75;;;16.60;99.90;;;;;;5110573;28;20101;-74
2023/09/03 04:03:28;;;;;;;34.33;20.60;;;16.50;99.90;;;;;;5094672;28;20040;-75
2023/09/03 04:06:01;;;;;;;30.15;19.20;;;16.50;99.90;;;;;;5112282;28;20015;-74
2023/09/03 04:08:32;;;;;;;31.60;20.65;;;16.50;99.90;;;;;;5111889;28;20030;-75
2023/09/03 04:11:03;;;;;;;30.90;21.08;;;16.50;99.90;;;;;;5094285;28;20024;-75
2023/09/03 04:13:29;;;;;;;33.80;21.42;;;16.50;99.90;;;;;;5093664;28;20035;-75
2023/09/03 04:15:56;;;;;;;29.00;19.58;;;16.50;99.90;;;;;;5098132;28;20028;-75
2023/09/03 04:18:23;;;;;;;28.25;19.63;;;16.40;99.90;;;;;;5098639;28;20031;-75
2023/09/03 04:20:56;;;;;;;36.33;23.33;;;16.40;99.90;;;;;;5098718;28;20288;-75
2023/09/03 04:23:25;;;;;;;29.52;19.73;;;16.40;99.90;;;;;;5098426;28;20024;-75
2023/09/03 04:25:51;;;;;;;29.83;19.77;;;16.30;99.90;;;;;;5115225;28;20028;-74
2023/09/03 04:28:22;;;;;;;30.88;21.05;;;16.30;99.90;;;;;;5098056;28;20051;-75
2023/09/03 04:30:59;;;;;;;28.50;19.67;;;16.30;99.90;;;;;;5097036;28;20111;-75
2023/09/03 04:33:25;;;;;;;31.17;21.90;;;16.20;99.90;;;;;;5096569;28;20302;-75
2023/09/03 04:35:58;;;;;;;30.15;20.58;;;16.20;99.90;;;;;;5096318;28;20024;-75
2023/09/03 04:38:25;;;;;;;36.75;21.13;;;16.20;99.90;;;;;;5115356;28;20039;-75
2023/09/03 04:40:53;;;;;;;31.48;21.08;;;16.20;99.90;;;;;;5097893;28;20100;-74
2023/09/03 04:43:19;;;;;;;35.45;21.63;;;16.20;99.90;;;;;;5096195;28;20061;-74
2023/09/03 04:45:46;;;;;;;36.47;22.92;;;16.10;99.90;;;;;;5095192;28;20062;-75
2023/09/03 04:48:12;;;;;;;34.15;22.65;;;16.10;99.90;;;;;;5097624;28;20066;-75
2023/09/03 04:50:37;;;;;;;34.15;23.20;;;16.00;99.90;;;;;;5095666;28;20028;-75
2023/09/03 04:53:03;;;;;;;35.55;22.48;;;16.00;99.90;;;;;;5097470;28;20020;-74
2023/09/03 04:55:32;;;;;;;32.80;20.48;;;16.10;99.90;;;;;;5114502;28;20093;-74
2023/09/03 04:57:57;;;;;;;35.33;22.23;;;16.00;99.90;;;;;;5097096;28;20032;-75
2023/09/03 05:00:27;;;;;;;34.13;21.77;;;16.00;99.90;;;;;;5097016;28;20031;-74
2023/09/03 05:02:52;;;;;;;34.42;21.73;;;16.00;99.90;;;;;;5096405;28;20119;-74
2023/09/03 05:05:18;;;;;;;36.33;22.48;;;15.90;99.90;;;;;;5115255;28;20036;-74
2023/09/03 05:07:44;;;;;;;35.83;21.45;;;15.90;99.90;;;;;;5097777;28;20075;-75
2023/09/03 05:10:09;;;;;;;32.40;21.27;;;15.90;99.90;;;;;;5096036;28;20028;-75
2023/09/03 05:12:35;;;;;;;41.97;23.00;;;15.90;99.90;;;;;;5113557;28;20045;-75
2023/09/03 05:15:01;;;;;;;33.83;21.33;;;15.90;99.90;;;;;;5115075;28;20020;-75
2023/09/03 05:17:27;;;;;;;36.78;22.75;;;15.90;99.90;;;;;;5096385;28;20058;-74
2023/09/03 05:19:52;;;;;;;31.88;21.48;;;15.90;99.90;;;;;;5114462;28;20040;-78
2023/09/03 05:22:18;;;;;;;29.60;20.50;;;15.90;99.90;;;;;;5096300;28;20024;-75
2023/09/03 05:24:43;;;;;;;28.38;19.27;;;15.90;99.90;;;;;;5093755;28;20016;-74
2023/09/03 05:27:12;;;;;;;39.97;23.05;;;16.00;99.90;;;;;;5093765;28;20052;-74
2023/09/03 05:29:37;;;;;;;43.10;24.73;;;16.00;99.90;;;;;;5097005;28;20023;-75
2023/09/03 05:32:03;;;;;;;60.78;30.77;;;16.00;99.90;;;;;;5114750;28;20016;-75
2023/09/03 05:34:29;;;;;;;68.68;34.28;;;16.00;99.90;;;;;;5115024;28;20020;-74
2023/09/03 05:36:54;;;;;;;79.85;33.95;;;16.00;99.90;;;;;;5094166;28;20120;-74
2023/09/03 05:39:22;;;;;;;91.95;36.78;;;16.00;99.90;;;;;;5114057;28;20048;-75
2023/09/03 05:41:48;;;;;;;74.38;35.70;;;16.00;99.90;;;;;;5113659;28;20034;-75
2023/09/03 05:44:15;;;;;;;70.20;36.38;;;16.00;99.90;;;;;;5113882;28;20052;-75
2023/09/03 05:46:42;;;;;;;74.22;35.92;;;16.10;99.90;;;;;;5095649;28;20035;-74
2023/09/03 05:49:08;;;;;;;73.95;36.58;;;16.10;99.90;;;;;;5096077;28;20084;-75
2023/09/03 05:51:36;;;;;;;83.70;37.17;;;16.10;99.90;;;;;;5114500;28;20035;-74
2023/09/03 05:54:03;;;;;;;90.68;38.65;;;16.20;99.90;;;;;;5095202;28;20220;-75
2023/09/03 05:56:34;;;;;;;86.80;39.95;;;16.20;99.90;;;;;;5114178;28;20047;-75
2023/09/03 05:59:02;;;;;;;79.75;36.97;;;16.20;99.90;;;;;;5114252;28;20026;-75
2023/09/03 06:01:30;;;;;;;81.80;35.60;;;16.20;99.90;;;;;;5096388;28;20030;-75
2023/09/03 06:04:02;;;;;;;100.50;36.83;;;16.20;99.90;;;;;;5096174;28;20028;-75
2023/09/03 06:06:28;;;;;;;117.93;34.42;;;16.30;99.90;;;;;;5113746;28;20023;-75
2023/09/03 06:08:54;;;;;;;99.40;37.67;;;16.30;99.90;;;;;;5096060;28;20035;-75
2023/09/03 06:11:20;;;;;;;111.25;35.25;;;16.30;99.90;;;;;;5094109;28;20192;-75
2023/09/03 06:13:46;;;;;;;97.60;33.25;;;16.30;99.90;;;;;;5093656;28;20066;-74
2023/09/03 06:16:11;;;;;;;88.45;34.92;;;16.30;99.90;;;;;;5095544;28;20032;-74
2023/09/03 06:18:37;;;;;;;93.43;35.00;;;16.30;99.90;;;;;;5092879;28;20083;-75
2023/09/03 06:21:03;;;;;;;112.47;33.97;;;16.40;99.90;;;;;;5113354;28;20008;-75
2023/09/03 06:23:30;;;;;;;67.15;35.47;;;16.40;99.90;;;;;;5093948;28;20099;-75
2023/09/03 06:26:00;;;;;;;70.22;38.90;;;16.40;99.90;;;;;;5095182;28;20121;-75
2023/09/03 06:28:28;;;;;;;84.38;33.85;;;16.40;99.90;;;;;;5114564;28;20032;-74
2023/09/03 06:31:00;;;;;;;66.55;34.53;;;16.50;99.90;;;;;;5095719;28;20016;-75
2023/09/03 06:33:25;;;;;;;71.75;34.80;;;16.60;99.90;;;;;;5113390;28;20036;-75
2023/09/03 06:35:54;;;;;;;60.63;34.92;;;16.60;99.90;;;;;;5095937;28;20020;-75
2023/09/03 06:38:19;;;;;;;59.45;32.20;;;16.70;99.90;;;;;;5113293;28;20055;-75
2023/09/03 06:40:45;;;;;;;56.95;34.80;;;16.70;99.90;;;;;;5094288;28;20031;-76
2023/09/03 06:43:13;;;;;;;50.95;31.38;;;16.70;99.90;;;;;;5112848;28;20032;-75
2023/09/03 06:45:39;;;;;;;54.50;32.22;;;16.70;99.90;;;;;;5093924;28;20034;-75
2023/09/03 06:48:04;;;;;;;49.03;29.85;;;16.70;99.90;;;;;;5094222;28;20024;-75
2023/09/03 06:50:34;;;;;;;36.97;26.95;;;16.80;99.90;;;;;;5095643;28;20032;-75
2023/09/03 06:53:00;;;;;;;44.25;28.23;;;16.80;99.90;;;;;;5113754;28;20036;-75
2023/09/03 06:55:26;;;;;;;41.83;26.38;;;16.90;99.90;;;;;;5113723;28;20032;-75
2023/09/03 06:57:53;;;;;;;44.05;28.77;;;16.90;99.90;;;;;;5095145;28;20039;-74
2023/09/03 07:00:19;;;;;;;45.67;28.90;;;17.00;99.90;;;;;;5091149;28;20039;-77
2023/09/03 07:02:47;;;;;;;39.63;27.27;;;17.00;99.90;;;;;;5111905;28;20091;-76
2023/09/03 07:05:15;;;;;;;43.95;26.48;;;17.00;99.90;;;;;;5105807;28;20036;-77
2023/09/03 07:07:46;;;;;;;33.08;23.00;;;17.10;99.90;;;;;;5093859;28;20032;-75
2023/09/03 07:10:12;;;;;;;29.95;22.05;;;17.20;99.90;;;;;;5109650;28;20036;-79
2023/09/03 07:12:37;;;;;;;27.02;19.92;;;17.20;99.90;;;;;;5088914;28;20059;-75
2023/09/03 07:15:08;;;;;;;26.50;19.00;;;17.20;99.90;;;;;;5091949;28;20051;-77
2023/09/03 07:17:34;;;;;;;28.00;18.73;;;17.30;99.90;;;;;;5092020;28;20040;-76
2023/09/03 07:20:00;;;;;;;28.52;19.73;;;17.40;99.90;;;;;;5113273;28;20082;-75
2023/09/03 07:22:25;;;;;;;26.75;19.20;;;17.50;99.90;;;;;;5094065;28;20043;-75
2023/09/03 07:24:54;;;;;;;26.55;18.83;;;17.50;99.90;;;;;;5092639;28;20297;-75
2023/09/03 07:27:20;;;;;;;22.90;16.77;;;17.50;99.90;;;;;;5106026;28;20028;-80
2023/09/03 07:29:46;;;;;;;23.52;17.10;;;17.50;99.90;;;;;;5090507;28;20028;-76
2023/09/03 07:32:11;;;;;;;26.02;17.90;;;17.60;99.90;;;;;;5083361;28;20244;-82
2023/09/03 07:34:37;;;;;;;25.13;17.63;;;17.60;99.90;;;;;;5077183;28;20039;-80
2023/09/03 07:37:07;;;;;;;29.73;18.67;;;17.60;99.90;;;;;;5073347;28;20036;-84
2023/09/03 07:39:33;;;;;;;25.08;18.05;;;17.60;99.90;;;;;;5069825;28;20020;-85
2023/09/03 07:42:00;;;;;;;26.75;18.00;;;17.60;99.90;;;;;;5069097;28;20103;-86
2023/09/03 07:44:26;;;;;;;23.02;17.17;;;17.70;99.90;;;;;;5070383;28;20031;-84
2023/09/03 07:46:52;;;;;;;26.52;18.20;;;17.70;99.90;;;;;;5070336;28;20036;-86
2023/09/03 07:49:17;;;;;;;25.35;17.65;;;17.80;99.90;;;;;;5066965;28;20123;-83
2023/09/03 07:51:43;;;;;;;27.52;21.45;;;17.90;99.90;;;;;;5087752;28;20046;-86
2023/09/03 07:54:09;;;;;;;26.23;20.20;;;17.90;99.90;;;;;;5068567;28;20032;-81
2023/09/03 07:56:34;;;;;;;26.83;20.02;;;18.00;99.90;;;;;;5087475;28;20087;-87
2023/09/03 07:59:00;;;;;;;24.35;17.90;;;18.00;99.90;;;;;;5087980;28;20036;-86
2023/09/03 08:01:25;;;;;;;26.83;19.63;;;18.10;99.90;;;;;;5069672;28;20117;-87
2023/09/03 08:03:51;;;;;;;24.95;17.90;;;18.10;99.90;;;;;;5088017;28;20450;-84
2023/09/03 08:06:21;;;;;;;26.30;17.55;;;18.10;99.90;;;;;;5085909;28;20032;-88
2023/09/03 08:08:53;;;;;;;29.63;19.60;;;18.10;99.90;;;;;;5088772;28;20028;-83
2023/09/03 08:11:19;;;;;;;24.55;18.50;;;18.20;99.90;;;;;;5067907;28;20043;-82
2023/09/03 08:13:47;;;;;;;25.67;18.75;;;18.20;99.90;;;;;;5087370;28;20020;-86
2023/09/03 08:16:12;;;;;;;25.13;17.77;;;18.30;99.90;;;;;;5068945;28;20198;-86
2023/09/03 08:18:38;;;;;;;26.00;16.58;;;18.30;99.90;;;;;;5069281;28;20039;-85
2023/09/03 08:21:03;;;;;;;23.42;17.88;;;18.40;99.90;;;;;;5068873;28;20039;-85
2023/09/03 08:23:31;;;;;;;25.23;17.73;;;18.40;99.90;;;;;;5069454;28;20030;-86
2023/09/03 08:25:57;;;;;;;25.17;17.52;;;18.40;99.90;;;;;;5071206;28;20113;-88
2023/09/03 08:28:22;;;;;;;24.35;18.00;;;18.40;99.90;;;;;;5071188;28;20044;-84
2023/09/03 08:30:48;;;;;;;25.25;18.15;;;18.50;99.90;;;;;;5069166;28;20630;-88
2023/09/03 08:33:13;;;;;;;24.08;17.25;;;18.60;99.90;;;;;;5072262;28;20035;-82
2023/09/03 08:35:39;;;;;;;22.98;16.98;;;18.60;99.90;;;;;;5071164;28;20144;-88
2023/09/03 08:38:05;;;;;;;25.35;17.27;;;18.60;99.90;;;;;;5071523;28;20028;-85
2023/09/03 08:40:32;;;;;;;27.67;18.63;;;18.70;99.90;;;;;;5074772;28;20059;-84
2023/09/03 08:42:59;;;;;;;25.80;17.75;;;18.70;99.90;;;;;;5088055;28;20048;-83
2023/09/03 08:45:27;;;;;;;25.42;16.80;;;18.80;99.90;;;;;;5069110;28;20055;-87
2023/09/03 08:47:53;;;;;;;23.95;17.85;;;18.80;99.90;;;;;;5070756;28;20025;-84
2023/09/03 08:50:21;;;;;;;26.27;18.17;;;18.90;99.90;;;;;;5071241;28;20110;-84
2023/09/03 08:52:47;;;;;;;26.35;18.05;;;18.90;99.90;;;;;;5087921;28;20028;-86
2023/09/03 08:55:13;;;;;;;24.75;18.40;;;18.90;99.90;;;;;;5070128;28;20035;-86
2023/09/03 08:57:39;;;;;;;23.63;17.25;;;18.90;99.90;;;;;;5068416;28;20024;-85
2023/09/03 09:00:06;;;;;;;23.25;16.60;;;18.90;99.90;;;;;;5075049;28;20024;-84
2023/09/03 09:02:36;;;;;;;24.30;18.23;;;19.00;99.90;;;;;;5074482;28;20023;-84
2023/09/03 09:05:04;;;;;;;24.05;17.33;;;19.10;99.90;;;;;;5068667;28;20035;-85
2023/09/03 09:07:33;;;;;;;23.27;17.05;;;19.10;99.90;;;;;;5071861;28;20043;-82
2023/09/03 09:10:06;;;;;;;22.67;16.58;;;19.10;99.90;;;;;;5074339;28;20032;-84
2023/09/03 09:12:37;;;;;;;22.83;16.83;;;19.20;99.90;;;;;;5072934;28;20055;-87
2023/09/03 09:15:04;;;;;;;22.20;16.42;;;19.20;99.90;;;;;;5075152;28;20122;-84
2023/09/03 09:17:41;;;;;;;22.48;16.83;;;19.20;99.90;;;;;;5095403;28;20036;-85
2023/09/03 09:20:08;;;;;;;25.60;16.83;;;19.20;99.90;;;;;;5070688;28;20112;-83
2023/09/03 09:22:47;;;;;;;23.75;17.88;;;19.20;99.90;;;;;;5068181;28;20097;-85
2023/09/03 09:25:22;;;;;;;23.40;17.55;;;19.20;99.90;;;;;;5072206;28;20047;-85
2023/09/03 09:27:49;;;;;;;25.45;18.17;;;19.20;99.90;;;;;;5088802;28;20099;-82
2023/09/03 09:30:19;;;;;;;23.15;16.98;;;19.20;99.90;;;;;;5072555;28;20118;-87
2023/09/03 09:32:45;;;;;;;25.80;17.98;;;19.20;99.90;;;;;;5089978;28;20034;-87
2023/09/03 09:35:21;;;;;;;24.73;17.27;;;19.20;99.90;;;;;;5088749;28;20024;-86
2023/09/03 09:37:49;;;;;;;22.65;16.30;;;19.20;99.90;;;;;;5071015;28;20024;-87
2023/09/03 09:40:28;;;;;;;22.15;16.00;;;19.20;99.90;;;;;;5072696;28;20086;-87
2023/09/03 09:42:56;;;;;;;25.95;18.20;;;19.20;99.90;;;;;;5070713;28;20123;-86
2023/09/03 09:45:22;;;;;;;23.98;16.48;;;19.20;99.90;;;;;;5072554;28;20024;-86
2023/09/03 09:48:09;;;;;;;25.25;16.60;;;19.20;99.90;;;;;;5071858;28;20059;-84
2023/09/03 09:50:46;;;;;;;25.00;16.83;;;19.30;99.90;;;;;;5072428;28;20036;-82
2023/09/03 09:53:25;;;;;;;26.15;16.15;;;19.30;99.90;;;;;;5072311;28;20032;-86
2023/09/03 09:56:03;;;;;;;23.50;16.50;;;19.30;99.90;;;;;;5089033;28;20530;-87
2023/09/03 09:58:40;;;;;;;22.25;15.02;;;19.30;99.90;;;;;;5069063;28;20051;-84
2023/09/03 10:01:07;;;;;;;20.33;14.85;;;19.30;99.90;;;;;;5071526;28;20032;-87
2023/09/03 10:03:46;;;;;;;21.10;14.05;;;19.30;99.90;;;;;;5070105;28;20039;-84
2023/09/03 10:06:17;;;;;;;19.80;12.85;;;19.30;99.90;;;;;;5071234;28;20048;-85
2023/09/03 10:08:45;;;;;;;20.30;14.73;;;19.40;99.90;;;;;;5089575;28;20234;-85
2023/09/03 10:11:13;;;;;;;17.52;13.23;;;19.50;99.90;;;;;;5088382;28;20035;-83
2023/09/03 10:13:42;;;;;;;22.98;14.95;;;19.50;99.90;;;;;;5071672;28;20024;-84
2023/09/03 10:16:11;;;;;;;20.13;14.80;;;19.60;99.90;;;;;;5071969;28;20431;-84
2023/09/03 10:18:48;;;;;;;17.77;13.85;;;19.60;99.90;;;;;;5074139;28;21712;-85
2023/09/03 10:21:23;;;;;;;21.42;15.10;;;19.70;99.90;;;;;;5068937;28;20543;-85
2023/09/03 10:23:50;;;;;;;20.80;14.98;;;19.70;99.90;;;;;;5088875;28;20050;-87
2023/09/03 10:26:41;;;;;;;17.92;12.60;;;19.70;99.90;;;;;;5089581;28;21094;-87
2023/09/03 10:29:10;;;;;;;16.05;11.48;;;19.80;99.90;;;;;;5064591;28;20630;-88
2023/09/03 10:31:37;;;;;;;16.08;11.65;;;19.90;99.90;;;;;;5071028;28;20043;-83
2023/09/03 10:34:09;;;;;;;15.23;11.82;;;20.00;99.90;;;;;;5071112;28;20464;-85
2023/09/03 10:36:34;;;;;;;14.73;10.70;;;20.10;99.90;;;;;;5088593;28;20051;-87
2023/09/03 10:39:23;;;;;;;16.05;11.07;;;20.20;99.90;;;;;;5066859;28;20028;-86
2023/09/03 10:42:17;;;;;;;10.88;8.15;;;20.30;99.90;;;;;;5088759;28;20020;-83
2023/09/03 10:44:44;;;;;;;7.68;5.78;;;20.40;99.90;;;;;;5089284;28;20020;-84
2023/09/03 10:47:17;;;;;;;5.20;3.83;;;20.50;99.90;;;;;;5088560;28;20043;-87
2023/09/03 10:49:46;;;;;;;6.72;4.80;;;20.60;99.90;;;;;;5070906;28;20043;-87
2023/09/03 10:52:34;;;;;;;6.28;4.35;;;20.80;99.90;;;;;;5087519;28;20028;-87
2023/09/03 10:55:16;;;;;;;6.78;4.65;;;20.80;99.90;;;;;;5088798;28;20043;-85
2023/09/03 10:57:43;;;;;;;9.18;6.40;;;20.90;99.90;;;;;;5088324;28;20098;-85
2023/09/03 11:00:21;;;;;;;7.78;5.70;;;21.00;99.90;;;;;;5071046;28;20032;-86
2023/09/03 11:02:47;;;;;;;7.30;4.25;;;21.10;99.90;;;;;;5069202;28;20046;-83
2023/09/03 11:05:33;;;;;;;7.85;5.65;;;21.10;99.90;;;;;;5088359;28;20024;-85
2023/09/03 11:08:22;;;;;;;7.30;4.78;;;21.10;99.90;;;;;;5068719;28;20061;-84
2023/09/03 11:10:48;;;;;;;6.10;4.57;;;21.10;99.90;;;;;;5088568;28;20122;-85
2023/09/03 11:13:14;;;;;;;6.53;3.47;;;21.10;99.90;;;;;;5065294;28;20093;-85
2023/09/03 11:15:57;;;;;;;5.35;4.03;;;21.10;99.90;;;;;;5068627;28;20031;-86
2023/09/03 11:18:26;;;;;;;5.38;3.50;;;21.20;99.90;;;;;;5087076;28;20100;-83
2023/09/03 11:20:53;;;;;;;4.47;3.60;;;21.30;99.90;;;;;;5070309;28;20020;-84
2023/09/03 11:23:19;;;;;;;7.03;3.15;;;21.40;99.90;;;;;;5067734;28;20021;-84
2023/09/03 11:25:45;;;;;;;3.60;2.47;;;21.50;99.90;;;;;;5068016;28;20035;-85
2023/09/03 11:28:12;;;;;;;3.65;2.60;;;21.60;99.90;;;;;;5067042;28;20036;-84
2023/09/03 11:30:42;;;;;;;4.03;2.75;;;21.60;99.90;;;;;;5067180;28;20043;-86
2023/09/03 11:33:11;;;;;;;3.30;2.38;;;21.60;99.90;;;;;;5085561;28;20092;-86
2023/09/03 11:35:43;;;;;;;4.57;2.28;;;21.70;99.90;;;;;;5069009;28;20111;-85
2023/09/03 11:38:09;;;;;;;3.47;2.70;;;21.70;99.90;;;;;;5068676;28;20890;-84
2023/09/03 11:40:35;;;;;;;5.55;3.13;;;21.90;99.90;;;;;;5069861;28;20047;-86
2023/09/03 11:43:00;;;;;;;3.25;2.47;;;22.00;99.90;;;;;;5066415;28;20546;-83
2023/09/03 11:45:31;;;;;;;2.58;1.63;;;22.10;99.90;;;;;;5069880;28;20111;-85
2023/09/03 11:47:57;;;;;;;3.67;1.60;;;22.20;99.90;;;;;;5070578;28;20052;-84
2023/09/03 11:50:23;;;;;;;2.28;1.77;;;22.20;99.90;;;;;;5067304;28;20633;-86
2023/09/03 11:52:58;;;;;;;1.92;1.45;;;22.30;99.90;;;;;;5067411;28;20036;-83
2023/09/03 11:55:27;;;;;;;2.53;1.60;;;22.50;99.90;;;;;;5066307;28;20060;-83
2023/09/03 11:57:54;;;;;;;1.92;1.50;;;22.60;99.90;;;;;;5086216;28;21664;-84
2023/09/03 12:00:20;;;;;;;2.45;1.45;;;22.60;99.90;;;;;;5068090;28;20020;-86
2023/09/03 12:02:47;;;;;;;2.30;1.65;;;22.70;99.90;;;;;;5086816;28;20051;-83
2023/09/03 12:05:15;;;;;;;4.05;2.10;;;22.80;99.90;;;;;;5069041;28;20093;-84
2023/09/03 12:07:43;;;;;;;2.53;1.60;;;22.80;99.90;;;;;;5068717;28;20084;-83
2023/09/03 12:10:11;;;;;;;3.25;1.77;;;22.90;99.90;;;;;;5086735;28;20488;-84
2023/09/03 12:12:41;;;;;;;1.77;1.40;;;22.90;99.90;;;;;;5064513;28;20069;-85
2023/09/03 12:15:20;;;;;;;2.30;1.75;;;23.00;99.90;;;;;;5086093;28;20549;-84
2023/09/03 12:17:49;;;;;;;2.53;1.88;;;23.10;99.90;;;;;;5062515;28;20039;-82
2023/09/03 12:20:33;;;;;;;2.00;1.70;;;23.10;99.90;;;;;;5068802;28;20157;-86
2023/09/03 12:23:10;;;;;;;2.92;2.10;;;23.20;99.90;;;;;;5086037;28;20174;-83
2023/09/03 12:25:36;;;;;;;3.42;2.28;;;23.20;99.90;;;;;;5086748;28;20025;-84
2023/09/03 12:28:04;;;;;;;4.00;2.05;;;23.20;99.90;;;;;;5090460;28;20039;-84
2023/09/03 12:31:02;;;;;;;3.30;2.22;;;23.30;99.90;;;;;;5087472;28;20024;-83
2023/09/03 12:33:34;;;;;;;2.67;2.15;;;23.30;99.90;;;;;;5066601;28;20032;-85
2023/09/03 12:36:17;;;;;;;2.40;1.70;;;23.20;99.90;;;;;;5069293;28;20810;-86
2023/09/03 12:38:52;;;;;;;3.65;1.90;;;23.20;99.90;;;;;;5074799;28;20035;-85
2023/09/03 12:41:19;;;;;;;2.50;1.77;;;23.30;99.90;;;;;;5070433;28;20096;-85